createdAt,value
2017-11-20T00:00:12.752Z,12.23
2017-11-20T00:02:38.961Z,20.13
2017-11-20T00:05:05.895Z,14.23
2017-11-20T00:07:32.122Z,26.17
2017-11-20T00:09:58.327Z,17.93
2017-11-20T00:12:24.569Z,19.50
2017-11-20T00:14:50.814Z,21.10
2017-11-20T00:17:17.785Z,11.27
2017-11-20T00:19:44.078Z,11.63
2017-11-20T00:22:13.577Z,11.60
2017-11-20T00:24:40.508Z,24.17
2017-11-20T00:27:07.461Z,24.07
2017-11-20T00:29:33.681Z,17.93
2017-11-20T00:31:59.920Z,16.17
2017-11-20T00:34:26.395Z,20.17
2017-11-20T00:36:52.594Z,19.03
2017-11-20T00:39:18.885Z,16.17
2017-11-20T00:41:45.063Z,16.77
2017-11-20T00:44:11.308Z,16.23
2017-11-20T00:46:37.562Z,21.23
2017-11-20T00:49:03.770Z,16.23
2017-11-20T00:51:30.033Z,21.70
2017-11-20T00:53:56.281Z,18.13
2017-11-20T00:56:22.673Z,17.83
2017-11-20T00:58:48.925Z,22.10
2017-11-20T01:01:15.912Z,19.97
2017-11-20T01:03:42.197Z,16.97
2017-11-20T01:06:08.418Z,29.57
2017-11-20T01:08:34.709Z,18.87
2017-11-20T01:11:01.060Z,14.53
2017-11-20T01:13:27.329Z,16.30
2017-11-20T01:15:53.534Z,20.13
2017-11-20T01:18:19.726Z,14.20
2017-11-20T01:20:46.006Z,13.90
2017-11-20T01:23:12.214Z,19.63
2017-11-20T01:25:38.678Z,9.80
2017-11-20T01:28:05.021Z,30.40
2017-11-20T01:30:31.359Z,15.37
2017-11-20T01:32:57.612Z,18.13
2017-11-20T01:35:23.818Z,20.37
2017-11-20T01:37:50.148Z,12.87
2017-11-20T01:40:16.415Z,20.50
2017-11-20T01:42:42.666Z,17.23
2017-11-20T01:45:08.854Z,18.43
2017-11-20T01:47:35.158Z,25.40
2017-11-20T01:50:01.451Z,17.33
2017-11-20T01:52:27.740Z,35.83
2017-11-20T01:54:53.955Z,14.10
2017-11-20T01:57:20.234Z,22.57
2017-11-20T01:59:46.746Z,17.70
2017-11-20T02:02:12.962Z,15.27
2017-11-20T02:04:39.274Z,21.40
2017-11-20T02:07:05.501Z,21.90
2017-11-20T02:09:31.831Z,17.17
2017-11-20T02:11:58.069Z,20.20
2017-11-20T02:14:24.268Z,16.73
2017-11-20T02:16:50.510Z,22.07
2017-11-20T02:19:17.531Z,15.73
2017-11-20T02:21:43.758Z,23.47
2017-11-20T02:24:09.997Z,22.77
2017-11-20T02:26:36.267Z,15.40
2017-11-20T02:29:03.251Z,17.07
2017-11-20T02:31:29.441Z,17.47
2017-11-20T02:33:55.709Z,21.83
2017-11-20T02:36:22.046Z,20.37
2017-11-20T02:38:48.998Z,16.23
2017-11-20T02:41:15.273Z,22.20
2017-11-20T02:43:41.567Z,16.17
2017-11-20T02:46:07.806Z,20.67
2017-11-20T02:48:34.024Z,18.40
2017-11-20T02:51:01.083Z,17.37
2017-11-20T02:53:28.035Z,22.40
2017-11-20T02:55:54.380Z,13.73
2017-11-20T02:58:21.322Z,18.43
2017-11-20T03:00:47.589Z,9.27
2017-11-20T03:03:13.829Z,29.07
2017-11-20T03:05:40.144Z,14.53
2017-11-20T03:08:06.369Z,15.70
2017-11-20T03:10:32.695Z,19.77
2017-11-20T03:12:59.045Z,11.50
2017-11-20T03:15:25.259Z,32.00
2017-11-20T03:17:51.811Z,18.77
2017-11-20T03:20:18.075Z,20.33
2017-11-20T03:22:44.391Z,22.93
2017-11-20T03:25:10.625Z,16.73
2017-11-20T03:27:36.856Z,12.33
2017-11-20T03:30:03.120Z,15.80
2017-11-20T03:32:29.358Z,18.70
2017-11-20T03:34:55.632Z,25.03
2017-11-20T03:37:21.933Z,20.20
2017-11-20T03:39:48.167Z,20.27
2017-11-20T03:42:15.221Z,25.10
2017-11-20T03:44:41.450Z,15.87
2017-11-20T03:47:07.731Z,10.20
2017-11-20T03:49:33.951Z,21.40
2017-11-20T03:52:00.197Z,15.43
2017-11-20T03:54:26.672Z,16.00
2017-11-20T03:56:52.942Z,10.57
2017-11-20T03:59:19.238Z,15.97
2017-11-20T04:01:46.365Z,13.10
2017-11-20T04:04:12.627Z,25.87
2017-11-20T04:06:38.843Z,16.73
2017-11-20T04:09:05.048Z,10.90
2017-11-20T04:11:31.305Z,15.53
2017-11-20T04:13:58.290Z,15.43
2017-11-20T04:16:24.554Z,20.43
2017-11-20T04:18:50.775Z,10.10
2017-11-20T04:21:17.012Z,20.93
2017-11-20T04:23:43.209Z,8.43
2017-11-20T04:26:10.156Z,23.77
2017-11-20T04:28:36.403Z,21.90
2017-11-20T04:31:02.693Z,16.47
2017-11-20T04:33:28.960Z,13.87
2017-11-20T04:35:55.266Z,20.23
2017-11-20T04:38:21.596Z,12.03
2017-11-20T04:40:47.856Z,19.17
2017-11-20T04:43:14.097Z,12.10
2017-11-20T04:45:40.350Z,17.47
2017-11-20T04:48:06.729Z,12.40
2017-11-20T04:50:32.985Z,20.33
2017-11-20T04:52:59.202Z,15.37
2017-11-20T04:55:26.249Z,11.60
2017-11-20T04:57:52.805Z,13.20
2017-11-20T05:00:19.047Z,17.83
2017-11-20T05:02:45.342Z,13.50
2017-11-20T05:05:11.633Z,13.10
2017-11-20T05:07:37.821Z,20.80
2017-11-20T05:10:04.738Z,15.23
2017-11-20T05:12:31.707Z,25.63
2017-11-20T05:14:58.756Z,12.90
2017-11-20T05:17:25.026Z,15.80
2017-11-20T05:19:51.217Z,18.40
2017-11-20T05:22:17.470Z,31.80
2017-11-20T05:24:43.760Z,13.13
2017-11-20T05:27:10.676Z,14.60
2017-11-20T05:29:36.899Z,19.80
2017-11-20T05:32:03.958Z,11.93
2017-11-20T05:34:30.168Z,20.80
2017-11-20T05:36:56.365Z,18.33
2017-11-20T05:39:22.679Z,15.20
2017-11-20T05:41:48.945Z,21.83
2017-11-20T05:44:15.208Z,11.33
2017-11-20T05:46:42.250Z,15.50
2017-11-20T05:49:08.561Z,13.27
2017-11-20T05:51:35.483Z,17.07
2017-11-20T05:54:02.564Z,21.17
2017-11-20T05:56:28.788Z,25.23
2017-11-20T05:58:55.034Z,16.53
2017-11-20T06:01:21.219Z,20.87
2017-11-20T06:03:47.557Z,19.93
2017-11-20T06:06:14.528Z,16.03
2017-11-20T06:08:40.740Z,14.60
2017-11-20T06:11:07.029Z,19.53
2017-11-20T06:13:33.271Z,14.10
2017-11-20T06:15:59.466Z,18.37
2017-11-20T06:18:25.650Z,11.70
2017-11-20T06:20:51.884Z,18.33
2017-11-20T06:23:18.794Z,14.90
2017-11-20T06:25:45.011Z,17.33
2017-11-20T06:28:12.341Z,14.40
2017-11-20T06:30:38.550Z,21.10
2017-11-20T06:33:04.799Z,21.20
2017-11-20T06:35:31.746Z,24.43
2017-11-20T06:37:57.945Z,17.87
2017-11-20T06:40:25.040Z,22.97
2017-11-20T06:42:51.268Z,33.53
2017-11-20T06:45:17.456Z,17.10
2017-11-20T06:47:43.705Z,20.47
2017-11-20T06:50:09.987Z,15.80
2017-11-20T06:52:36.216Z,24.63
2017-11-20T06:55:02.539Z,18.53
2017-11-20T06:57:28.838Z,32.30
2017-11-20T06:59:55.126Z,23.07
2017-11-20T07:02:21.341Z,25.70
2017-11-20T07:04:47.572Z,22.63
2017-11-20T07:07:13.910Z,19.23
2017-11-20T07:09:40.238Z,24.87
2017-11-20T07:12:06.487Z,20.00
2017-11-20T07:14:32.722Z,21.80
2017-11-20T07:16:58.903Z,21.30
2017-11-20T07:19:25.195Z,26.70
2017-11-20T07:21:52.183Z,22.90
2017-11-20T07:24:18.448Z,28.50
2017-11-20T07:27:03.502Z,28.97
2017-11-20T07:29:42.014Z,22.53
2017-11-20T07:32:08.248Z,30.67
2017-11-20T07:34:46.742Z,29.43
2017-11-20T07:37:25.205Z,24.40
2017-11-20T07:42:59.696Z,22.10
2017-11-20T07:45:25.937Z,28.97
2017-11-20T07:47:53.037Z,25.97
2017-11-20T07:50:19.315Z,26.93
2017-11-20T07:52:46.193Z,27.37
2017-11-20T07:55:15.598Z,29.63
2017-11-20T07:57:41.804Z,26.27
2017-11-20T08:00:08.111Z,23.13
2017-11-20T08:02:34.413Z,24.10
2017-11-20T08:05:00.607Z,29.80
2017-11-20T08:07:26.849Z,26.80
2017-11-20T08:09:53.523Z,35.30
2017-11-20T08:12:19.738Z,28.63
2017-11-20T08:14:45.909Z,36.60
2017-11-20T08:17:12.652Z,28.70
2017-11-20T08:19:38.961Z,36.70
2017-11-20T08:22:05.902Z,35.83
2017-11-20T08:24:32.178Z,31.77
2017-11-20T08:26:58.384Z,32.03
2017-11-20T08:29:24.590Z,31.93
2017-11-20T08:31:50.767Z,33.33
2017-11-20T08:34:16.982Z,32.57
2017-11-20T08:36:43.197Z,31.43
2017-11-20T08:39:09.412Z,41.90
2017-11-20T08:41:35.653Z,33.70
2017-11-20T08:44:01.878Z,35.97
2017-11-20T08:46:28.111Z,32.10
2017-11-20T08:48:54.373Z,41.90
2017-11-20T08:51:20.597Z,38.20
2017-11-20T08:53:46.842Z,37.43
2017-11-20T08:56:13.144Z,36.90
2017-11-20T08:58:39.396Z,33.30
2017-11-20T09:01:06.397Z,49.60
2017-11-20T09:03:32.710Z,35.80
2017-11-20T09:05:58.909Z,35.80
2017-11-20T09:08:25.172Z,36.10
2017-11-20T09:10:51.445Z,34.50
2017-11-20T09:13:17.725Z,35.10
2017-11-20T09:15:43.954Z,43.03
2017-11-20T09:18:10.135Z,32.83
2017-11-20T09:20:37.173Z,34.53
2017-11-20T09:23:03.416Z,42.47
2017-11-20T09:25:29.754Z,31.60
2017-11-20T09:27:56.027Z,37.83
2017-11-20T09:30:22.286Z,35.60
2017-11-20T09:32:48.501Z,29.97
2017-11-20T09:35:14.705Z,30.87
2017-11-20T09:37:40.973Z,27.73
2017-11-20T09:40:07.226Z,39.40
2017-11-20T09:42:33.460Z,28.30
2017-11-20T09:44:59.662Z,32.47
2017-11-20T09:47:25.886Z,35.80
2017-11-20T09:49:52.139Z,43.27
2017-11-20T09:52:18.369Z,29.37
2017-11-20T09:54:44.660Z,30.60
2017-11-20T09:57:10.893Z,30.63
2017-11-20T09:59:37.242Z,31.90
2017-11-20T10:02:03.709Z,46.90
2017-11-20T10:04:29.999Z,42.53
2017-11-20T10:06:56.301Z,35.73
2017-11-20T10:09:22.597Z,38.33
2017-11-20T10:11:48.847Z,30.43
2017-11-20T10:14:15.107Z,40.67
2017-11-20T10:16:42.714Z,38.73
2017-11-20T10:19:09.790Z,36.00
2017-11-20T10:21:36.125Z,42.70
2017-11-20T10:24:02.393Z,36.20
2017-11-20T10:26:29.477Z,34.60
2017-11-20T10:28:55.914Z,39.07
2017-11-20T10:31:22.309Z,35.20
2017-11-20T10:33:48.591Z,30.97
2017-11-20T10:36:14.897Z,35.70
2017-11-20T10:38:41.093Z,33.50
2017-11-20T10:41:07.507Z,39.23
2017-11-20T10:43:34.526Z,39.73
2017-11-20T10:46:00.785Z,36.63
2017-11-20T10:48:27.660Z,34.23
2017-11-20T10:50:54.002Z,33.77
2017-11-20T10:53:20.257Z,38.47
2017-11-20T10:55:46.554Z,30.60
2017-11-20T10:58:12.953Z,29.73
2017-11-20T11:00:40.018Z,34.00
2017-11-20T11:03:06.391Z,35.60
2017-11-20T11:05:32.639Z,40.27
2017-11-20T11:07:58.857Z,36.73
2017-11-20T11:10:25.064Z,38.23
2017-11-20T11:12:51.301Z,35.30
2017-11-20T11:15:17.538Z,34.90
2017-11-20T11:17:43.792Z,42.10
2017-11-20T11:20:10.017Z,34.07
2017-11-20T11:22:36.318Z,38.97
2017-11-20T11:25:02.586Z,37.93
2017-11-20T11:27:28.777Z,43.93
2017-11-20T11:29:55.330Z,35.03
2017-11-20T11:32:21.571Z,39.73
2017-11-20T11:34:48.609Z,34.43
2017-11-20T11:37:14.806Z,36.30
2017-11-20T11:39:41.066Z,33.20
2017-11-20T11:42:07.321Z,36.37
2017-11-20T11:44:33.614Z,30.93
2017-11-20T11:46:59.809Z,38.90
2017-11-20T11:49:26.041Z,40.60
2017-11-20T11:51:52.315Z,28.93
2017-11-20T11:54:18.588Z,29.80
2017-11-20T11:56:44.847Z,44.00
2017-11-20T11:59:11.165Z,27.73
2017-11-20T12:01:37.433Z,31.00
2017-11-20T12:04:03.704Z,34.40
2017-11-20T12:06:29.937Z,34.67
2017-11-20T12:08:56.143Z,34.30
2017-11-20T12:11:22.460Z,27.67
2017-11-20T12:13:48.725Z,32.73
2017-11-20T12:16:14.971Z,33.30
2017-11-20T12:18:41.205Z,27.03
2017-11-20T12:21:07.515Z,34.80
2017-11-20T12:23:33.740Z,55.67
2017-11-20T12:25:59.985Z,35.37
2017-11-20T12:28:26.322Z,33.17
2017-11-20T12:30:53.303Z,43.33
2017-11-20T12:33:19.567Z,26.40
2017-11-20T12:35:46.037Z,36.07
2017-11-20T12:38:12.308Z,31.37
2017-11-20T12:40:38.525Z,40.07
2017-11-20T12:43:05.036Z,27.23
2017-11-20T12:45:31.296Z,40.33
2017-11-20T12:47:57.780Z,29.63
2017-11-20T12:50:24.075Z,36.97
2017-11-20T12:52:50.477Z,27.03
2017-11-20T12:55:16.700Z,31.47
2017-11-20T12:57:42.986Z,35.30
2017-11-20T13:00:09.492Z,23.93
2017-11-20T13:02:35.849Z,40.63
2017-11-20T13:05:02.097Z,30.20
2017-11-20T13:07:28.520Z,26.63
2017-11-20T13:09:55.034Z,38.13
2017-11-20T13:12:21.482Z,38.20
2017-11-20T13:14:47.732Z,31.03
2017-11-20T13:17:14.278Z,29.00
2017-11-20T13:19:41.289Z,26.83
2017-11-20T13:22:07.557Z,28.90
2017-11-20T13:24:33.899Z,24.30
2017-11-20T13:27:00.156Z,24.03
2017-11-20T13:29:27.128Z,25.80
2017-11-20T13:31:54.270Z,23.53
2017-11-20T13:34:20.577Z,28.03
2017-11-20T13:36:46.835Z,29.13
2017-11-20T13:39:13.149Z,29.83
2017-11-20T13:41:39.361Z,24.90
2017-11-20T13:44:05.606Z,22.20
2017-11-20T13:46:31.936Z,24.73
2017-11-20T13:48:58.231Z,23.90
2017-11-20T13:51:24.481Z,20.57
2017-11-20T13:53:50.744Z,22.87
2017-11-20T13:56:17.737Z,18.23
2017-11-20T13:58:43.979Z,24.43
2017-11-20T14:01:10.230Z,23.00
2017-11-20T14:03:36.497Z,26.83
2017-11-20T14:06:14.646Z,30.13
2017-11-20T14:08:40.894Z,22.63
2017-11-20T14:11:07.172Z,24.10
2017-11-20T14:13:33.473Z,23.40
2017-11-20T14:15:59.694Z,23.00
2017-11-20T14:18:25.927Z,16.60
2017-11-20T14:20:53.159Z,16.13
2017-11-20T14:23:20.087Z,25.27
2017-11-20T14:25:49.046Z,28.07
2017-11-20T14:28:17.112Z,22.57
2017-11-20T14:30:43.593Z,24.40
2017-11-20T14:33:10.070Z,23.43
2017-11-20T14:35:36.458Z,21.27
2017-11-20T14:38:02.825Z,31.93
2017-11-20T14:40:29.158Z,23.57
2017-11-20T14:42:56.291Z,24.80
2017-11-20T14:45:22.554Z,34.53
2017-11-20T14:47:56.242Z,29.03
2017-11-20T14:50:22.611Z,24.07
2017-11-20T14:52:50.889Z,22.57
2017-11-20T14:55:17.858Z,22.57
2017-11-20T14:57:44.168Z,20.43
2017-11-20T15:00:12.256Z,29.80
2017-11-20T15:02:38.529Z,18.73
2017-11-20T15:05:05.107Z,26.43
2017-11-20T15:07:32.100Z,33.73
2017-11-20T15:09:58.500Z,31.00
2017-11-20T15:12:24.935Z,40.23
2017-11-20T15:14:51.166Z,33.67
2017-11-20T15:17:18.280Z,33.67
2017-11-20T15:19:45.410Z,33.27
2017-11-20T15:22:11.724Z,26.63
2017-11-20T15:24:39.105Z,37.23
2017-11-20T15:27:05.481Z,31.37
2017-11-20T15:29:31.788Z,32.53
2017-11-20T15:31:58.159Z,29.87
2017-11-20T15:34:24.755Z,26.30
2017-11-20T15:36:52.097Z,33.60
2017-11-20T15:39:19.589Z,31.30
2017-11-20T15:41:45.924Z,26.80
2017-11-20T15:44:12.173Z,27.40
2017-11-20T15:46:39.408Z,32.63
2017-11-20T15:49:05.698Z,25.97
2017-11-20T15:51:31.986Z,91.40
2017-11-20T15:53:58.223Z,62.83
2017-11-20T15:56:24.518Z,56.37
2017-11-20T15:58:50.799Z,53.97
2017-11-20T16:01:17.785Z,47.80
2017-11-20T16:03:44.030Z,79.23
2017-11-20T16:06:10.254Z,33.73
2017-11-20T16:08:36.707Z,41.90
2017-11-20T16:11:02.931Z,88.43
2017-11-20T16:13:29.246Z,63.97
2017-11-20T16:15:55.491Z,31.30
2017-11-20T16:18:22.312Z,39.17
2017-11-20T16:20:48.580Z,40.30
2017-11-20T16:23:16.421Z,33.53
2017-11-20T16:25:42.813Z,32.97
2017-11-20T16:28:10.031Z,38.17
2017-11-20T16:30:36.390Z,42.20
2017-11-20T16:33:03.393Z,36.67
2017-11-20T16:35:30.675Z,35.23
2017-11-20T16:37:57.051Z,43.50
2017-11-20T16:40:23.360Z,39.43
2017-11-20T16:42:50.442Z,46.10
2017-11-20T16:45:16.689Z,37.17
2017-11-20T16:47:42.954Z,34.50
2017-11-20T16:50:09.936Z,38.53
2017-11-20T16:52:36.202Z,36.83
2017-11-20T16:55:03.276Z,39.87
2017-11-20T16:57:41.676Z,33.67
2017-11-20T17:00:19.714Z,44.53
2017-11-20T17:03:10.679Z,46.90
2017-11-20T17:05:37.544Z,42.37
2017-11-20T17:08:04.654Z,38.07
2017-11-20T17:10:30.869Z,32.00
2017-11-20T17:12:57.169Z,34.80
2017-11-20T17:15:24.430Z,37.60
2017-11-20T17:17:50.704Z,42.33
2017-11-20T17:20:17.973Z,38.07
2017-11-20T17:22:44.215Z,38.60
2017-11-20T17:25:12.946Z,39.50
2017-11-20T17:27:39.233Z,36.50
2017-11-20T17:30:06.346Z,40.47
2017-11-20T17:32:32.624Z,45.60
2017-11-20T17:34:59.615Z,40.60
2017-11-20T17:37:26.872Z,47.50
2017-11-20T17:39:53.203Z,39.70
2017-11-20T17:42:19.518Z,49.33
2017-11-20T17:44:45.886Z,45.40
2017-11-20T17:47:12.113Z,42.97
2017-11-20T17:49:38.937Z,41.53
2017-11-20T17:52:05.991Z,49.03
2017-11-20T17:54:32.308Z,47.90
2017-11-20T17:56:59.045Z,39.07
2017-11-20T17:59:25.365Z,48.33
2017-11-20T18:01:52.629Z,49.37
2017-11-20T18:04:18.956Z,43.40
2017-11-20T18:06:45.184Z,41.37
2017-11-20T18:09:12.523Z,42.90
2017-11-20T18:11:38.851Z,47.97
2017-11-20T18:14:05.148Z,37.90
2017-11-20T18:16:32.615Z,40.43
2017-11-20T18:18:58.938Z,44.13
2017-11-20T18:21:25.190Z,45.43
2017-11-20T18:23:52.849Z,46.13
2017-11-20T18:26:19.826Z,45.50
2017-11-20T18:28:46.093Z,41.03
2017-11-20T18:31:12.371Z,48.87
2017-11-20T18:33:38.987Z,44.90
2017-11-20T18:36:06.171Z,44.50
2017-11-20T18:38:32.436Z,53.13
2017-11-20T18:40:58.687Z,46.43
2017-11-20T18:43:25.243Z,49.07
2017-11-20T18:45:53.390Z,48.90
2017-11-20T18:48:19.646Z,49.70
2017-11-20T18:50:45.905Z,42.73
2017-11-20T18:53:12.610Z,51.67
2017-11-20T18:55:38.865Z,55.20
2017-11-20T18:58:06.555Z,55.60
2017-11-20T19:00:45.061Z,46.30
2017-11-20T19:03:19.533Z,53.70
2017-11-20T19:05:59.254Z,58.53
2017-11-20T19:11:32.340Z,50.20
2017-11-20T19:13:58.770Z,52.20
2017-11-20T19:16:26.770Z,50.83
2017-11-20T19:18:54.399Z,56.50
2017-11-20T19:21:21.357Z,55.57
2017-11-20T19:23:48.363Z,52.83
2017-11-20T19:26:14.862Z,54.20
2017-11-20T19:28:41.085Z,44.80
2017-11-20T19:31:08.706Z,52.47
2017-11-20T19:33:35.693Z,50.13
2017-11-20T19:36:03.516Z,53.47
2017-11-20T19:38:30.685Z,54.83
2017-11-20T19:40:57.798Z,50.43
2017-11-20T19:43:24.099Z,53.50
2017-11-20T19:45:50.388Z,52.10
2017-11-20T19:48:17.532Z,51.57
2017-11-20T19:50:43.861Z,45.50
2017-11-20T19:53:11.918Z,45.97
2017-11-20T19:55:39.092Z,52.37
2017-11-20T19:58:07.443Z,52.80
2017-11-20T20:00:34.686Z,45.63
2017-11-20T20:03:03.045Z,47.00
2017-11-20T20:05:30.103Z,53.53
2017-11-20T20:07:59.505Z,51.97
2017-11-20T20:10:25.722Z,47.30
2017-11-20T20:12:52.847Z,49.50
2017-11-20T20:15:31.321Z,48.10
2017-11-20T20:17:59.250Z,55.07
2017-11-20T20:20:25.466Z,55.30
2017-11-20T20:22:53.879Z,45.03
2017-11-20T20:25:20.451Z,49.80
2017-11-20T20:27:48.211Z,42.27
2017-11-20T20:30:16.422Z,41.37
2017-11-20T20:32:42.776Z,50.80
2017-11-20T20:35:09.064Z,51.23
2017-11-20T20:37:36.415Z,47.30
2017-11-20T20:40:04.575Z,49.57
2017-11-20T20:42:31.757Z,42.37
2017-11-20T20:45:02.313Z,45.60
2017-11-20T20:47:28.845Z,45.40
2017-11-20T20:49:55.216Z,43.80
2017-11-20T20:52:21.704Z,50.20
2017-11-20T20:54:47.995Z,40.70
2017-11-20T20:57:14.327Z,43.13
2017-11-20T20:59:41.534Z,43.70
2017-11-20T21:02:09.725Z,42.87
2017-11-20T21:04:38.179Z,41.10
2017-11-20T21:07:05.521Z,42.87
2017-11-20T21:09:42.607Z,37.13
2017-11-20T21:12:15.141Z,33.37
2017-11-20T21:14:41.559Z,36.87
2017-11-20T21:17:07.950Z,35.00
2017-11-20T21:19:39.163Z,40.80
2017-11-20T21:22:08.714Z,35.90
2017-11-20T21:24:52.326Z,29.53
2017-11-20T21:27:18.608Z,39.27
2017-11-20T21:29:44.950Z,32.93
2017-11-20T21:32:15.999Z,40.87
2017-11-20T21:34:43.640Z,38.53
2017-11-20T21:37:12.133Z,43.50
2017-11-20T21:39:38.455Z,29.97
2017-11-20T21:42:05.475Z,33.63
2017-11-20T21:44:33.451Z,34.43
2017-11-20T21:47:00.930Z,29.00
2017-11-20T21:49:29.125Z,28.13
2017-11-20T21:51:56.881Z,34.80
2017-11-20T21:54:23.872Z,30.33
2017-11-20T21:56:50.166Z,26.90
2017-11-20T21:59:16.485Z,27.93
2017-11-20T22:01:42.720Z,30.80
2017-11-20T22:04:09.255Z,29.60
2017-11-20T22:06:35.938Z,33.43
2017-11-20T22:09:04.242Z,29.00
2017-11-20T22:11:31.640Z,26.10
2017-11-20T22:13:58.737Z,27.30
2017-11-20T22:16:26.201Z,29.67
2017-11-20T22:18:59.400Z,26.27
2017-11-20T22:21:25.822Z,26.20
2017-11-20T22:23:52.077Z,27.23
2017-11-20T22:26:18.340Z,21.80
2017-11-20T22:28:46.885Z,23.83
2017-11-20T22:31:13.199Z,24.93
2017-11-20T22:33:39.493Z,21.53
2017-11-20T22:36:07.831Z,20.20
2017-11-20T22:38:35.340Z,19.93
2017-11-20T22:41:03.432Z,18.47
2017-11-20T22:43:29.977Z,17.97
2017-11-20T22:46:04.028Z,22.80
2017-11-20T22:48:37.773Z,17.20
2017-11-20T22:51:04.096Z,18.70
2017-11-20T22:53:39.710Z,24.97
2017-11-20T22:58:48.984Z,16.97
2017-11-20T23:01:22.293Z,19.17
2017-11-20T23:03:48.860Z,18.90
2017-11-20T23:06:15.214Z,18.47
2017-11-20T23:08:46.340Z,18.10
2017-11-20T23:11:13.795Z,17.67
2017-11-20T23:13:42.394Z,18.27
2017-11-20T23:16:10.576Z,17.17
2017-11-20T23:18:38.748Z,17.40
2017-11-20T23:21:05.141Z,17.23
2017-11-20T23:23:31.592Z,16.67
2017-11-20T23:26:00.507Z,12.77
2017-11-20T23:28:26.831Z,16.57
2017-11-20T23:30:53.865Z,16.07
2017-11-20T23:33:20.605Z,14.63
2017-11-20T23:35:47.268Z,13.27
2017-11-20T23:38:13.550Z,12.53
2017-11-20T23:40:41.591Z,12.03
2017-11-20T23:43:07.888Z,11.63
2017-11-20T23:45:36.423Z,10.53
2017-11-20T23:48:03.497Z,10.60
2017-11-20T23:50:30.083Z,9.93
2017-11-20T23:52:56.470Z,11.83
2017-11-20T23:55:24.591Z,8.97
2017-11-20T23:57:52.865Z,10.00
